createdAt,value
2018-10-06T02:14:44.030Z,9.10
2018-10-06T02:17:19.952Z,9.20
2018-10-06T02:19:54.725Z,9.10
2018-10-06T02:22:27.427Z,9.10
2018-10-06T02:25:01.357Z,9.20
2018-10-06T02:27:49.358Z,9.10
2018-10-06T02:30:30.205Z,9.10
2018-10-06T02:33:03.466Z,9.10
2018-10-06T02:35:41.985Z,9.20
2018-10-06T02:38:15.449Z,9.20
2018-10-06T02:40:49.935Z,9.20
2018-10-06T02:43:23.382Z,9.10
2018-10-06T02:45:57.602Z,9.10
2018-10-06T02:48:30.639Z,9.10
2018-10-06T02:51:05.994Z,9.10
2018-10-06T02:53:39.157Z,9.00
2018-10-06T02:56:12.479Z,9.00
2018-10-06T02:58:46.804Z,9.00
2018-10-06T03:01:20.204Z,9.10
2018-10-06T03:03:53.868Z,9.10
2018-10-06T03:06:27.217Z,9.10
2018-10-06T03:09:00.487Z,9.10
2018-10-06T03:11:34.145Z,9.10
2018-10-06T03:14:08.064Z,9.10
2018-10-06T03:16:41.292Z,9.10
2018-10-06T03:19:16.384Z,9.10
2018-10-06T03:21:51.572Z,9.10
2018-10-06T03:24:24.904Z,9.10
2018-10-06T03:26:58.801Z,9.00
2018-10-06T03:29:32.201Z,9.00
2018-10-06T03:32:05.570Z,9.00
2018-10-06T03:34:38.742Z,9.00
2018-10-06T03:37:13.006Z,9.00
2018-10-06T03:39:48.199Z,9.00
2018-10-06T03:42:21.386Z,9.00
2018-10-06T03:44:54.566Z,8.90
2018-10-06T03:47:27.468Z,9.00
2018-10-06T03:50:01.251Z,9.00
2018-10-06T03:52:35.597Z,9.00
2018-10-06T03:55:09.122Z,9.00
2018-10-06T03:57:42.496Z,9.00
2018-10-06T04:00:15.834Z,9.00
2018-10-06T04:02:51.930Z,9.10
2018-10-06T04:05:25.159Z,9.10
2018-10-06T04:07:58.532Z,9.10
2018-10-06T04:10:31.586Z,9.10
2018-10-06T04:13:04.704Z,9.00
2018-10-06T04:15:38.576Z,9.10
2018-10-06T04:18:11.463Z,9.00
2018-10-06T04:20:44.536Z,8.90
2018-10-06T04:23:18.051Z,9.00
2018-10-06T04:25:52.202Z,9.00
2018-10-06T04:28:25.799Z,9.00
2018-10-06T04:30:59.803Z,9.10
2018-10-06T04:33:33.339Z,9.10
2018-10-06T04:36:06.850Z,9.10
2018-10-06T04:38:40.627Z,9.20
2018-10-06T04:41:14.909Z,9.20
2018-10-06T04:43:48.409Z,9.20
2018-10-06T04:46:22.280Z,9.20
2018-10-06T04:48:55.669Z,9.20
2018-10-06T04:51:28.710Z,9.20
2018-10-06T04:54:02.368Z,9.20
2018-10-06T04:56:36.274Z,9.20
2018-10-06T04:59:09.513Z,9.30
2018-10-06T05:01:43.054Z,9.30
2018-10-06T05:04:16.488Z,9.30
2018-10-06T05:06:50.584Z,9.30
2018-10-06T05:09:23.784Z,9.30
2018-10-06T05:11:57.116Z,9.30
2018-10-06T05:14:29.993Z,9.30
2018-10-06T05:17:02.951Z,9.30
2018-10-06T05:19:36.731Z,9.40
2018-10-06T05:22:10.353Z,9.40
2018-10-06T05:24:44.378Z,9.40
2018-10-06T05:27:18.187Z,9.40
2018-10-06T05:29:51.464Z,9.50
2018-10-06T05:32:25.389Z,9.50
2018-10-06T05:34:58.720Z,9.50
2018-10-06T05:37:32.366Z,9.50
2018-10-06T05:40:06.075Z,9.50
2018-10-06T05:42:39.728Z,9.50
2018-10-06T05:45:12.994Z,9.50
2018-10-06T05:47:47.123Z,9.50
2018-10-06T05:50:20.580Z,9.60
2018-10-06T05:52:53.806Z,9.60
2018-10-06T05:55:26.811Z,9.60
2018-10-06T05:58:00.098Z,9.60
2018-10-06T06:00:33.630Z,9.60
2018-10-06T06:03:06.926Z,9.60
2018-10-06T06:05:40.365Z,9.60
2018-10-06T06:08:13.549Z,9.60
2018-10-06T06:10:46.568Z,9.60
2018-10-06T06:13:19.718Z,9.60
2018-10-06T06:15:53.332Z,9.60
2018-10-06T06:18:26.577Z,9.60
2018-10-06T06:20:59.684Z,9.60
2018-10-06T06:23:34.863Z,9.60
2018-10-06T06:26:08.264Z,9.60
2018-10-06T06:28:41.704Z,9.60
2018-10-06T06:31:14.780Z,9.60
2018-10-06T06:33:48.969Z,9.60
2018-10-06T06:36:22.215Z,9.60
2018-10-06T06:38:55.362Z,9.60
2018-10-06T06:41:29.621Z,9.60
2018-10-06T06:44:03.762Z,9.60
2018-10-06T06:46:36.698Z,9.60
2018-10-06T06:49:10.113Z,9.60
2018-10-06T06:51:44.123Z,9.60
2018-10-06T06:54:18.975Z,9.50
2018-10-06T06:56:52.099Z,9.50
2018-10-06T06:59:25.495Z,9.50
2018-10-06T07:01:58.681Z,9.50
2018-10-06T07:04:33.354Z,9.50
2018-10-06T07:07:07.390Z,9.50
2018-10-06T07:09:40.890Z,9.40
2018-10-06T07:12:14.125Z,9.40
2018-10-06T07:14:47.230Z,9.40
2018-10-06T07:17:20.965Z,9.40
2018-10-06T07:19:54.355Z,9.30
2018-10-06T07:22:27.847Z,9.30
2018-10-06T07:25:02.777Z,9.30
2018-10-06T07:27:35.849Z,9.30
2018-10-06T07:30:10.036Z,9.30
2018-10-06T07:32:43.019Z,9.40
2018-10-06T07:35:16.816Z,9.40
2018-10-06T07:37:51.632Z,9.40
2018-10-06T07:40:24.984Z,9.50
2018-10-06T07:42:58.827Z,9.40
2018-10-06T15:36:06.968Z,9.60
2018-10-06T15:38:41.516Z,9.60
2018-10-06T15:41:14.292Z,9.60
2018-10-06T15:43:47.383Z,9.60
2018-10-06T15:46:20.930Z,9.60
2018-10-06T15:48:54.180Z,9.60
2018-10-06T15:51:27.119Z,9.70
2018-10-06T15:54:00.712Z,9.70
2018-10-06T15:56:33.764Z,9.80
2018-10-06T15:59:07.414Z,9.80
2018-10-06T16:01:40.657Z,9.90
2018-10-06T16:04:13.978Z,9.90
2018-10-06T16:06:47.307Z,10.00
2018-10-06T16:09:20.750Z,10.00
2018-10-06T16:11:54.188Z,10.10
2018-10-06T16:14:27.588Z,10.10
2018-10-06T16:17:00.973Z,10.10
2018-10-06T16:19:35.324Z,10.10
2018-10-06T16:22:10.070Z,10.10
2018-10-06T16:24:43.217Z,10.10
2018-10-06T16:27:16.495Z,10.20
2018-10-06T16:29:49.823Z,10.30
2018-10-06T16:32:24.156Z,10.30
2018-10-06T16:34:58.733Z,10.30
2018-10-06T16:37:35.611Z,10.30
2018-10-06T16:40:10.037Z,10.30
2018-10-06T16:42:43.637Z,10.30
2018-10-06T16:45:16.761Z,10.30
2018-10-06T16:47:51.109Z,10.30
2018-10-06T16:50:26.256Z,10.30
2018-10-06T16:52:59.853Z,10.30
2018-10-06T16:55:34.343Z,10.40
2018-10-06T16:58:07.996Z,10.40
2018-10-06T17:00:41.268Z,10.40
2018-10-06T17:03:15.044Z,10.50
2018-10-06T17:05:49.014Z,10.60
2018-10-06T17:08:23.592Z,10.60
2018-10-06T17:10:59.384Z,10.60
2018-10-06T17:13:33.264Z,10.60
2018-10-06T17:16:07.125Z,10.70
2018-10-06T17:18:40.485Z,10.70
2018-10-06T17:21:14.044Z,10.60
2018-10-06T17:23:48.059Z,10.60
2018-10-06T17:26:21.907Z,10.60
2018-10-06T17:28:55.283Z,10.60
2018-10-06T17:31:28.307Z,10.60
2018-10-06T17:34:01.415Z,10.70
2018-10-06T17:36:34.891Z,10.70
2018-10-06T17:39:09.954Z,10.70
2018-10-06T17:41:44.504Z,10.70
2018-10-06T17:44:18.830Z,10.70
2018-10-06T17:46:52.209Z,10.60
2018-10-06T17:49:25.204Z,10.60
2018-10-06T17:51:58.828Z,10.70
2018-10-06T17:54:32.072Z,10.70
2018-10-06T17:57:12.345Z,10.80
2018-10-06T17:59:55.252Z,10.80
2018-10-06T18:02:36.638Z,10.80
2018-10-06T18:05:20.390Z,10.80
2018-10-06T18:08:08.016Z,10.90
2018-10-06T18:10:49.507Z,10.90
2018-10-06T18:16:20.463Z,11.00
2018-10-06T18:19:00.156Z,10.90
2018-10-06T18:21:45.915Z,10.90
2018-10-06T18:24:29.928Z,10.90
2018-10-06T18:27:13.987Z,10.90
2018-10-06T18:29:57.007Z,10.90
2018-10-06T18:32:37.268Z,11.00
2018-10-06T18:35:17.953Z,11.00
2018-10-06T18:37:58.091Z,11.00
2018-10-06T18:40:32.429Z,11.10
2018-10-06T18:43:05.921Z,11.20
2018-10-06T18:45:39.858Z,11.10
2018-10-06T18:48:15.085Z,11.10
2018-10-06T18:50:49.744Z,11.30
2018-10-06T18:53:23.261Z,11.40
2018-10-06T18:55:56.712Z,11.60
2018-10-06T18:58:30.523Z,11.70
2018-10-06T19:01:03.884Z,11.80
2018-10-06T19:03:37.337Z,11.70
2018-10-06T19:06:11.288Z,11.70
2018-10-06T19:08:44.921Z,11.70
2018-10-06T19:11:20.954Z,11.70
2018-10-06T19:13:56.015Z,11.70
2018-10-06T19:16:29.408Z,11.70
2018-10-06T19:19:02.497Z,12.00
2018-10-06T19:21:36.080Z,12.10
2018-10-06T19:24:09.554Z,12.20
2018-10-06T19:26:43.583Z,12.50
2018-10-06T19:29:16.986Z,12.30
2018-10-06T19:31:51.535Z,12.50
2018-10-06T19:34:27.255Z,12.70
2018-10-06T19:37:01.840Z,12.70
2018-10-06T19:39:35.104Z,12.90
2018-10-06T19:42:08.287Z,13.00
2018-10-06T19:44:41.264Z,12.80
2018-10-06T19:47:14.400Z,12.80
2018-10-06T19:49:47.674Z,12.90
2018-10-06T19:52:21.431Z,12.70
2018-10-06T19:54:54.922Z,12.90
2018-10-06T19:57:28.501Z,13.00
2018-10-06T20:00:03.399Z,13.10
2018-10-06T20:02:36.905Z,13.10
2018-10-06T20:05:10.467Z,13.10
2018-10-06T20:07:43.753Z,13.10
2018-10-06T20:10:17.164Z,13.10
2018-10-06T20:12:50.614Z,13.00
2018-10-06T20:15:24.037Z,13.20
2018-10-06T20:17:57.690Z,13.00
2018-10-06T20:20:31.244Z,13.30
2018-10-06T20:23:04.612Z,13.50
2018-10-06T20:25:38.034Z,13.20
2018-10-06T20:28:11.428Z,13.40
2018-10-06T20:30:46.101Z,13.30
2018-10-06T20:33:21.496Z,13.20
2018-10-06T20:35:55.350Z,13.50
2018-10-06T20:38:28.643Z,13.70
2018-10-06T20:41:03.403Z,13.80
2018-10-06T20:43:38.002Z,13.70
2018-10-06T20:46:11.152Z,13.90
2018-10-06T20:48:44.495Z,13.90
2018-10-06T20:51:17.840Z,13.80
2018-10-06T20:53:51.127Z,13.80
2018-10-06T20:56:27.655Z,13.90
2018-10-06T20:59:00.969Z,13.90
2018-10-06T21:01:34.041Z,13.80
2018-10-06T21:04:07.064Z,13.60
2018-10-06T21:06:40.227Z,13.70
2018-10-06T21:09:14.502Z,13.80
2018-10-06T21:11:47.783Z,14.10
2018-10-06T21:14:21.136Z,14.20
2018-10-06T21:16:54.256Z,14.30
2018-10-06T21:19:27.733Z,14.70
2018-10-06T21:22:01.497Z,15.00
2018-10-06T21:24:35.941Z,15.20
2018-10-06T21:27:09.191Z,15.40
2018-10-06T21:29:57.019Z,15.40
2018-10-06T21:32:30.476Z,15.30
2018-10-06T21:35:03.842Z,15.40
2018-10-06T21:37:38.784Z,15.20
2018-10-06T21:40:12.005Z,15.30
2018-10-06T21:42:45.676Z,15.30
2018-10-06T21:45:19.422Z,15.00
2018-10-06T21:47:52.945Z,14.90
2018-10-06T21:50:26.143Z,14.80
2018-10-06T21:53:00.004Z,14.70
2018-10-06T21:55:34.255Z,14.70
2018-10-06T21:58:07.576Z,14.80
2018-10-06T22:00:40.847Z,14.50
2018-10-06T22:03:14.021Z,14.50
2018-10-06T22:05:47.449Z,14.40
2018-10-06T22:08:21.679Z,14.40
2018-10-06T22:10:54.942Z,14.80
2018-10-06T22:13:28.937Z,15.00
2018-10-06T22:16:02.498Z,15.30
2018-10-06T22:18:35.743Z,15.30
2018-10-06T22:21:10.668Z,15.10
2018-10-06T22:23:44.305Z,15.10
2018-10-06T22:26:17.502Z,15.20
2018-10-06T22:28:50.656Z,15.20
2018-10-06T22:31:24.096Z,15.10
2018-10-06T22:33:57.462Z,15.00
2018-10-06T22:36:31.902Z,14.90
2018-10-06T22:39:07.226Z,14.80
2018-10-06T22:41:41.073Z,14.70
2018-10-06T22:44:14.399Z,14.60
2018-10-06T22:46:47.728Z,14.50
2018-10-06T22:49:21.091Z,14.60
2018-10-06T22:51:54.441Z,14.60
2018-10-06T22:54:28.198Z,14.70
2018-10-06T22:57:01.615Z,14.70
2018-10-06T22:59:35.794Z,14.70
2018-10-06T23:02:11.272Z,14.80
2018-10-06T23:04:44.318Z,14.90
2018-10-06T23:07:18.100Z,15.00
2018-10-06T23:09:51.503Z,15.00
2018-10-06T23:12:24.986Z,14.90
2018-10-06T23:14:58.221Z,14.90
2018-10-06T23:17:31.577Z,14.50
2018-10-06T23:20:04.829Z,14.50
2018-10-06T23:22:38.160Z,14.30
2018-10-06T23:25:11.665Z,14.40
2018-10-06T23:27:44.514Z,14.30
2018-10-06T23:30:17.817Z,14.30
2018-10-06T23:32:50.853Z,14.30
2018-10-06T23:35:24.036Z,14.10
2018-10-06T23:37:57.748Z,14.00
2018-10-06T23:40:31.038Z,13.80
2018-10-06T23:43:04.608Z,13.60
2018-10-06T23:45:38.514Z,13.60
2018-10-06T23:48:12.005Z,13.40
2018-10-06T23:50:45.077Z,13.40
2018-10-06T23:53:19.387Z,13.50
2018-10-06T23:55:52.201Z,13.40
2018-10-06T23:58:25.624Z,13.40
